Time;durP1;ratioP1;P1;durP2;ratioP2;P2;SDS_P1;SDS_P2;PMS_P1;PMS_P2;Temp;Humidity;BMP_temperature;BMP_pressure;BME280_temperature;BME280_humidity;BME280_pressure;Samples;Min_cycle;Max_cycle;Signal;HPM_P1;HPM_P2
2022/12/12 00:01:34;;;;;;;10.23;9.20;;;;;;;;;;5093079;28;20430;-78
2022/12/12 00:04:00;;;;;;;10.40;9.15;;;;;;;;;;5092604;28;20401;-78
2022/12/12 00:06:26;;;;;;;10.43;8.57;;;;;;;;;;5093157;28;20401;-79
2022/12/12 00:08:53;;;;;;;10.20;8.90;;;;;;;;;;5092867;28;21103;-79
2022/12/12 00:11:19;;;;;;;16.40;11.20;;;;;;;;;;5092668;28;20740;-79
2022/12/12 00:13:45;;;;;;;26.55;16.60;;;;;;;;;;5074573;28;20854;-78
2022/12/12 00:16:12;;;;;;;42.88;22.45;;;;;;;;;;5092676;28;20382;-79
2022/12/12 00:18:38;;;;;;;32.22;19.33;;;;;;;;;;5092474;28;20473;-79
2022/12/12 00:21:10;;;;;;;15.85;11.27;;;;;;;;;;5092658;28;20410;-79
2022/12/12 00:23:36;;;;;;;9.95;8.93;;;;;;;;;;5092485;28;20409;-79
2022/12/12 00:26:05;;;;;;;9.85;8.35;;;;;;;;;;5093455;28;20374;-79
2022/12/12 00:28:31;;;;;;;8.70;7.80;;;;;;;;;;5092345;28;20378;-79
2022/12/12 00:30:57;;;;;;;8.52;7.70;;;;;;;;;;5092274;28;20438;-79
2022/12/12 00:33:23;;;;;;;10.13;8.50;;;;;;;;;;5092310;28;20385;-78
2022/12/12 00:35:50;;;;;;;8.68;7.78;;;;;;;;;;5092099;28;20473;-79
2022/12/12 00:38:17;;;;;;;10.47;8.03;;;;;;;;;;5091866;28;20370;-79
2022/12/12 00:40:43;;;;;;;8.32;7.53;;;;;;;;;;5092040;28;20408;-79
2022/12/12 00:43:09;;;;;;;8.65;7.75;;;;;;;;;;5074019;28;20476;-79
2022/12/12 00:45:36;;;;;;;9.40;7.88;;;;;;;;;;5091953;28;20382;-79
2022/12/12 00:48:02;;;;;;;8.45;7.65;;;;;;;;;;5091841;28;20397;-78
2022/12/12 00:50:28;;;;;;;8.80;7.90;;;;;;;;;;5092170;28;20394;-79
2022/12/12 00:52:55;;;;;;;8.23;7.43;;;;;;;;;;5091898;28;20427;-78
2022/12/12 00:55:21;;;;;;;8.67;7.77;;;;;;;;;;5092220;28;20454;-79
2022/12/12 00:57:47;;;;;;;8.82;7.75;;;;;;;;;;5074037;28;20392;-78
2022/12/12 01:00:14;;;;;;;9.15;7.97;;;;;;;;;;5092151;28;20755;-79
2022/12/12 01:02:42;;;;;;;8.63;7.73;;;;;;;;;;5091268;28;21463;-79
2022/12/12 01:05:08;;;;;;;8.57;7.63;;;;;;;;;;5092141;28;20417;-79
2022/12/12 01:07:34;;;;;;;10.07;8.35;;;;;;;;;;5086720;28;20871;-78
2022/12/12 01:10:00;;;;;;;8.52;7.63;;;;;;;;;;5091757;28;20382;-79
2022/12/12 01:12:26;;;;;;;8.93;8.00;;;;;;;;;;5091838;28;20476;-79
2022/12/12 01:14:52;;;;;;;8.90;8.02;;;;;;;;;;5091661;28;20411;-79
2022/12/12 01:17:18;;;;;;;8.65;7.75;;;;;;;;;;5088151;28;20427;-79
2022/12/12 01:19:44;;;;;;;9.38;8.38;;;;;;;;;;5091808;28;20470;-78
2022/12/12 01:22:10;;;;;;;8.75;7.85;;;;;;;;;;5091605;28;20421;-79
2022/12/12 01:24:36;;;;;;;7.78;6.97;;;;;;;;;;5093404;28;20389;-79
2022/12/12 01:27:02;;;;;;;8.30;7.47;;;;;;;;;;5091050;28;20444;-78
2022/12/12 01:29:28;;;;;;;9.23;7.93;;;;;;;;;;5091268;28;20390;-79
2022/12/12 01:31:54;;;;;;;9.30;7.93;;;;;;;;;;5091582;28;20810;-78
2022/12/12 01:34:20;;;;;;;8.65;7.50;;;;;;;;;;5091398;28;20396;-79
2022/12/12 01:36:46;;;;;;;9.25;7.82;;;;;;;;;;5091194;28;20378;-78
2022/12/12 01:39:12;;;;;;;9.02;7.68;;;;;;;;;;5090990;28;20515;-79
2022/12/12 01:41:38;;;;;;;8.32;7.50;;;;;;;;;;5091445;28;20763;-79
2022/12/12 01:44:07;;;;;;;8.57;7.72;;;;;;;;;;5087782;28;20374;-79
2022/12/12 01:46:40;;;;;;;8.23;7.38;;;;;;;;;;5091473;28;20381;-79
2022/12/12 01:49:15;;;;;;;8.50;7.60;;;;;;;;;;5091536;28;20538;-79
2022/12/12 01:51:42;;;;;;;9.00;7.35;;;;;;;;;;5091549;28;20769;-78
2022/12/12 01:54:10;;;;;;;8.23;7.43;;;;;;;;;;5091580;28;20382;-78
2022/12/12 01:56:37;;;;;;;9.45;7.60;;;;;;;;;;5092520;28;20465;-79
2022/12/12 01:59:05;;;;;;;8.98;7.68;;;;;;;;;;5095500;28;20386;-79
2022/12/12 02:01:31;;;;;;;8.60;7.77;;;;;;;;;;5094856;28;20409;-79
2022/12/12 02:03:58;;;;;;;9.77;7.47;;;;;;;;;;5094958;28;20386;-79
2022/12/12 02:06:26;;;;;;;8.57;7.68;;;;;;;;;;5094909;28;20389;-79
2022/12/12 02:08:53;;;;;;;8.47;7.27;;;;;;;;;;5095044;28;20417;-79
2022/12/12 02:11:19;;;;;;;7.97;6.95;;;;;;;;;;5095120;28;20397;-78
2022/12/12 02:13:45;;;;;;;8.20;7.30;;;;;;;;;;5094881;28;20382;-79
2022/12/12 02:16:20;;;;;;;8.23;7.43;;;;;;;;;;5094973;28;20384;-79
2022/12/12 02:18:50;;;;;;;7.97;7.18;;;;;;;;;;5094942;28;20378;-79
2022/12/12 02:21:20;;;;;;;8.40;7.45;;;;;;;;;;5095075;28;20405;-79
2022/12/12 02:24:13;;;;;;;9.00;7.68;;;;;;;;;;5107982;28;20442;-79
2022/12/12 02:26:57;;;;;;;9.10;7.75;;;;;;;;;;5090839;28;20397;-78
2022/12/12 02:29:29;;;;;;;8.68;7.78;;;;;;;;;;5094797;28;20431;-79
2022/12/12 02:32:01;;;;;;;9.20;8.13;;;;;;;;;;5094375;28;20713;-79
2022/12/12 02:34:36;;;;;;;9.00;7.93;;;;;;;;;;5094797;28;20409;-79
2022/12/12 02:37:16;;;;;;;9.13;7.95;;;;;;;;;;5087921;28;20465;-79
2022/12/12 02:39:45;;;;;;;8.40;7.60;;;;;;;;;;5081794;28;20427;-79
2022/12/12 02:42:22;;;;;;;8.83;7.60;;;;;;;;;;5080209;28;20403;-79
2022/12/12 02:44:54;;;;;;;8.38;7.38;;;;;;;;;;5092404;28;20465;-79
2022/12/12 02:47:29;;;;;;;9.00;7.30;;;;;;;;;;5092891;28;20406;-78
2022/12/12 02:50:02;;;;;;;8.35;7.45;;;;;;;;;;5094402;28;20727;-79
2022/12/12 02:52:28;;;;;;;9.32;7.97;;;;;;;;;;5094451;28;20370;-78
2022/12/12 02:54:54;;;;;;;9.07;8.13;;;;;;;;;;5094144;28;20401;-79
2022/12/12 02:57:25;;;;;;;8.57;7.78;;;;;;;;;;5075829;28;20410;-79
2022/12/12 03:00:14;;;;;;;8.88;7.97;;;;;;;;;;5093946;28;20382;-78
2022/12/12 03:02:40;;;;;;;8.90;8.00;;;;;;;;;;5083464;28;20531;-79
2022/12/12 03:07:59;;;;;;;10.18;8.35;;;;;;;;;;5092590;28;20377;-79
2022/12/12 03:10:31;;;;;;;8.30;7.43;;;;;;;;;;5093780;28;20468;-79
2022/12/12 03:13:13;;;;;;;8.57;7.78;;;;;;;;;;5093954;28;20382;-79
2022/12/12 03:15:58;;;;;;;8.95;7.85;;;;;;;;;;5090657;28;20849;-78
2022/12/12 03:18:30;;;;;;;9.45;8.20;;;;;;;;;;5080887;28;20825;-79
2022/12/12 03:21:04;;;;;;;9.48;8.57;;;;;;;;;;5090713;28;20418;-79
2022/12/12 03:23:39;;;;;;;8.60;7.70;;;;;;;;;;5090796;28;20457;-79
2022/12/12 03:26:11;;;;;;;9.98;8.32;;;;;;;;;;5091313;28;20516;-78
2022/12/12 03:28:40;;;;;;;8.82;7.93;;;;;;;;;;5064777;28;20915;-79
2022/12/12 03:31:09;;;;;;;8.77;7.88;;;;;;;;;;5073277;28;20501;-79
2022/12/12 03:33:52;;;;;;;8.85;7.95;;;;;;;;;;5091616;28;20469;-78
2022/12/12 03:36:23;;;;;;;9.05;8.13;;;;;;;;;;5093273;28;20374;-79
2022/12/12 03:39:09;;;;;;;9.48;8.48;;;;;;;;;;5093154;28;20397;-78
2022/12/12 03:41:43;;;;;;;10.82;8.50;;;;;;;;;;5093243;28;20414;-78
2022/12/12 03:44:35;;;;;;;11.10;8.40;;;;;;;;;;5093178;28;20378;-78
2022/12/12 03:47:05;;;;;;;9.32;8.10;;;;;;;;;;5085873;28;20414;-79
2022/12/12 03:49:50;;;;;;;9.10;8.20;;;;;;;;;;5092947;28;20377;-79
2022/12/12 03:52:22;;;;;;;9.05;7.68;;;;;;;;;;5093047;28;20457;-79
2022/12/12 03:54:54;;;;;;;8.80;7.90;;;;;;;;;;5092742;28;20432;-79
2022/12/12 03:57:25;;;;;;;8.77;7.93;;;;;;;;;;5092797;28;20389;-78
2022/12/12 03:59:54;;;;;;;9.23;8.20;;;;;;;;;;5089716;28;20427;-79
2022/12/12 04:02:32;;;;;;;9.13;8.18;;;;;;;;;;5092700;28;20417;-79
2022/12/12 04:05:07;;;;;;;9.20;7.93;;;;;;;;;;5074131;28;20882;-79
2022/12/12 04:07:35;;;;;;;8.52;7.63;;;;;;;;;;5092296;28;20386;-79
2022/12/12 04:13:06;;;;;;;8.20;7.40;;;;;;;;;;5092749;28;20389;-79
2022/12/12 04:15:45;;;;;;;9.45;7.88;;;;;;;;;;5093565;28;20380;-78
2022/12/12 04:18:27;;;;;;;8.55;7.40;;;;;;;;;;5086798;28;20469;-79
2022/12/12 04:23:54;;;;;;;8.00;7.10;;;;;;;;;;5092444;28;20396;-79
2022/12/12 04:26:38;;;;;;;8.02;7.22;;;;;;;;;;5092396;28;20374;-79
2022/12/12 04:29:21;;;;;;;7.30;6.57;;;;;;;;;;5092575;28;20378;-78
2022/12/12 04:31:54;;;;;;;7.38;6.68;;;;;;;;;;5092705;28;20385;-79
2022/12/12 04:34:23;;;;;;;7.35;6.65;;;;;;;;;;5092548;28;20866;-79
2022/12/12 04:36:49;;;;;;;7.60;6.90;;;;;;;;;;5092028;28;20378;-79
2022/12/12 04:39:16;;;;;;;7.40;6.70;;;;;;;;;;5091880;28;20382;-78
2022/12/12 04:41:44;;;;;;;8.15;7.35;;;;;;;;;;5091944;28;20431;-78
2022/12/12 04:44:11;;;;;;;8.05;7.25;;;;;;;;;;5091951;28;20465;-78
2022/12/12 04:46:37;;;;;;;7.90;7.10;;;;;;;;;;5092110;28;20410;-78
2022/12/12 04:49:06;;;;;;;7.97;7.18;;;;;;;;;;5078304;28;20383;-79
2022/12/12 04:51:34;;;;;;;9.35;7.63;;;;;;;;;;5074219;28;20378;-79
2022/12/12 04:54:06;;;;;;;7.90;7.10;;;;;;;;;;5072984;28;20861;-79
2022/12/12 04:56:34;;;;;;;8.05;7.35;;;;;;;;;;5074711;28;20462;-80
2022/12/12 04:59:02;;;;;;;8.63;7.63;;;;;;;;;;5071936;28;20780;-80
2022/12/12 05:01:30;;;;;;;8.60;7.80;;;;;;;;;;5072694;28;20479;-79
2022/12/12 05:03:59;;;;;;;8.13;7.32;;;;;;;;;;5071429;28;20404;-80
2022/12/12 05:06:34;;;;;;;7.15;6.45;;;;;;;;;;5075719;28;20775;-79
2022/12/12 05:09:01;;;;;;;7.93;7.10;;;;;;;;;;5081441;28;20419;-80
2022/12/12 05:11:27;;;;;;;8.50;7.20;;;;;;;;;;5087588;28;20438;-80
2022/12/12 05:13:53;;;;;;;7.50;6.80;;;;;;;;;;5091093;28;20380;-80
2022/12/12 05:16:21;;;;;;;7.40;6.70;;;;;;;;;;5078830;28;20725;-79
2022/12/12 05:18:48;;;;;;;7.63;6.88;;;;;;;;;;5075559;28;20420;-80
2022/12/12 05:21:14;;;;;;;8.38;7.57;;;;;;;;;;5083192;28;20479;-80
2022/12/12 05:23:40;;;;;;;7.78;7.07;;;;;;;;;;5091838;28;20386;-80
2022/12/12 05:26:08;;;;;;;7.28;6.57;;;;;;;;;;5085333;28;20389;-80
2022/12/12 05:28:34;;;;;;;8.32;7.50;;;;;;;;;;5096015;28;20889;-80
2022/12/12 05:31:00;;;;;;;8.23;7.40;;;;;;;;;;5091314;28;20378;-80
2022/12/12 05:33:26;;;;;;;10.45;8.18;;;;;;;;;;5095155;28;20696;-80
2022/12/12 05:35:52;;;;;;;10.05;7.65;;;;;;;;;;5093973;28;20874;-80
2022/12/12 05:38:18;;;;;;;8.90;7.65;;;;;;;;;;5088350;28;20379;-79
2022/12/12 05:40:44;;;;;;;8.40;7.60;;;;;;;;;;5077159;28;20742;-80
2022/12/12 05:43:10;;;;;;;7.80;6.90;;;;;;;;;;5090613;28;20422;-80
2022/12/12 05:45:36;;;;;;;9.02;7.45;;;;;;;;;;5092921;28;20394;-80
2022/12/12 05:48:02;;;;;;;8.03;7.23;;;;;;;;;;5093985;28;20439;-80
2022/12/12 05:50:29;;;;;;;7.90;7.20;;;;;;;;;;5093512;28;20381;-79
2022/12/12 05:52:54;;;;;;;8.50;7.60;;;;;;;;;;5093983;28;20377;-80
2022/12/12 05:55:20;;;;;;;8.85;7.95;;;;;;;;;;5094301;28;20389;-80
2022/12/12 05:57:46;;;;;;;12.30;9.30;;;;;;;;;;5095149;28;20712;-80
2022/12/12 06:00:13;;;;;;;10.18;8.93;;;;;;;;;;5095094;28;20442;-80
2022/12/12 06:02:39;;;;;;;10.50;9.20;;;;;;;;;;5095179;28;20374;-80
2022/12/12 06:05:05;;;;;;;12.75;11.45;;;;;;;;;;5095183;28;20383;-80
2022/12/12 06:07:31;;;;;;;10.90;9.80;;;;;;;;;;5095289;28;20382;-80
2022/12/12 06:09:57;;;;;;;10.60;9.50;;;;;;;;;;5095096;28;20389;-79
2022/12/12 06:12:23;;;;;;;10.30;9.30;;;;;;;;;;5098601;28;20556;-80
2022/12/12 06:14:49;;;;;;;10.50;9.40;;;;;;;;;;5095039;28;20385;-80
2022/12/12 06:17:15;;;;;;;11.60;9.07;;;;;;;;;;5076729;28;20421;-79
2022/12/12 06:19:41;;;;;;;11.02;10.02;;;;;;;;;;5094427;28;20386;-80
2022/12/12 06:22:07;;;;;;;9.27;8.38;;;;;;;;;;5094662;28;20424;-79
2022/12/12 06:24:33;;;;;;;10.57;8.52;;;;;;;;;;5094783;28;20384;-79
2022/12/12 06:26:59;;;;;;;10.25;9.25;;;;;;;;;;5091099;28;20378;-79
2022/12/12 06:29:25;;;;;;;9.75;8.73;;;;;;;;;;5082467;28;20378;-80
2022/12/12 06:31:51;;;;;;;10.98;8.60;;;;;;;;;;5094389;28;20382;-79
2022/12/12 06:34:17;;;;;;;9.52;8.55;;;;;;;;;;5091900;28;20755;-80
2022/12/12 06:36:43;;;;;;;9.25;8.30;;;;;;;;;;5094573;28;20412;-79
2022/12/12 06:39:09;;;;;;;12.98;10.40;;;;;;;;;;5094391;28;20378;-79
2022/12/12 06:41:35;;;;;;;15.15;11.93;;;;;;;;;;5094259;28;20422;-79
2022/12/12 06:44:01;;;;;;;15.35;12.77;;;;;;;;;;5094246;28;20378;-80
2022/12/12 06:46:28;;;;;;;14.75;12.88;;;;;;;;;;5094695;28;20472;-79
2022/12/12 06:48:55;;;;;;;12.10;10.30;;;;;;;;;;5094564;28;20415;-80
2022/12/12 06:51:25;;;;;;;10.07;8.70;;;;;;;;;;5094074;28;20436;-79
2022/12/12 06:53:51;;;;;;;10.50;9.30;;;;;;;;;;5094459;28;20386;-80
2022/12/12 06:56:19;;;;;;;10.55;9.30;;;;;;;;;;5094008;28;20731;-79
2022/12/12 06:58:45;;;;;;;10.80;9.38;;;;;;;;;;5094064;28;20378;-79
2022/12/12 07:01:12;;;;;;;10.20;9.13;;;;;;;;;;5094030;28;20475;-79
2022/12/12 07:03:38;;;;;;;9.20;8.30;;;;;;;;;;5093835;28;20374;-79
2022/12/12 07:06:05;;;;;;;10.27;8.90;;;;;;;;;;5094065;28;20410;-79
2022/12/12 07:08:31;;;;;;;9.48;7.82;;;;;;;;;;5093975;28;20382;-80
2022/12/12 07:11:02;;;;;;;10.70;8.70;;;;;;;;;;5072387;28;20516;-80
2022/12/12 07:13:28;;;;;;;9.13;8.13;;;;;;;;;;5086072;28;20398;-80
2022/12/12 07:15:54;;;;;;;9.18;8.25;;;;;;;;;;5084103;28;20398;-80
2022/12/12 07:18:21;;;;;;;9.00;8.10;;;;;;;;;;5091725;28;20439;-80
2022/12/12 07:20:47;;;;;;;9.48;8.52;;;;;;;;;;5094036;28;20417;-80
2022/12/12 07:23:13;;;;;;;10.43;8.80;;;;;;;;;;5093992;28;20390;-80
2022/12/12 07:25:40;;;;;;;9.95;8.68;;;;;;;;;;5097130;28;20370;-80
2022/12/12 07:28:07;;;;;;;9.80;8.80;;;;;;;;;;5102206;28;20378;-80
2022/12/12 07:30:33;;;;;;;10.38;8.88;;;;;;;;;;5093462;28;20382;-80
2022/12/12 07:32:59;;;;;;;10.80;8.95;;;;;;;;;;5093467;28;20854;-80
2022/12/12 07:35:25;;;;;;;9.52;8.52;;;;;;;;;;5091849;28;20473;-80
2022/12/12 07:37:51;;;;;;;9.23;8.30;;;;;;;;;;5083390;28;20414;-80
2022/12/12 07:40:17;;;;;;;9.20;8.30;;;;;;;;;;5093425;28;20417;-80
2022/12/12 07:42:43;;;;;;;8.80;8.00;;;;;;;;;;5093378;28;20962;-80
2022/12/12 07:45:09;;;;;;;8.90;8.00;;;;;;;;;;5093521;28;20444;-80
2022/12/12 07:47:35;;;;;;;8.43;7.57;;;;;;;;;;5092509;28;20390;-80
2022/12/12 07:50:01;;;;;;;8.43;7.63;;;;;;;;;;5093110;28;20803;-79
2022/12/12 07:52:27;;;;;;;8.45;7.65;;;;;;;;;;5092930;28;20426;-81
2022/12/12 07:54:53;;;;;;;10.00;8.50;;;;;;;;;;5091869;28;20446;-80
2022/12/12 07:57:20;;;;;;;10.95;7.78;;;;;;;;;;5074763;28;20469;-80
2022/12/12 07:59:45;;;;;;;10.38;7.53;;;;;;;;;;5092856;28;20374;-80
2022/12/12 08:02:11;;;;;;;8.30;7.40;;;;;;;;;;5092904;28;20763;-80
2022/12/12 08:04:37;;;;;;;9.52;7.78;;;;;;;;;;5092568;28;20386;-80
2022/12/12 08:07:04;;;;;;;8.55;7.60;;;;;;;;;;5093842;28;20394;-79
2022/12/12 08:09:30;;;;;;;8.85;7.72;;;;;;;;;;5098497;28;20378;-80
2022/12/12 08:11:57;;;;;;;8.25;7.45;;;;;;;;;;5092832;28;20382;-80
2022/12/12 08:14:23;;;;;;;12.38;11.07;;;;;;;;;;5092506;28;20751;-80
2022/12/12 08:16:49;;;;;;;9.10;8.20;;;;;;;;;;5083233;28;20389;-80
2022/12/12 08:19:15;;;;;;;10.60;9.35;;;;;;;;;;5081602;28;20393;-81
2022/12/12 08:21:42;;;;;;;10.10;9.02;;;;;;;;;;5092814;28;20406;-80
2022/12/12 08:24:10;;;;;;;9.38;8.32;;;;;;;;;;5092336;28;20393;-80
2022/12/12 08:26:36;;;;;;;8.82;7.85;;;;;;;;;;5092440;28;20388;-80
2022/12/12 08:29:02;;;;;;;11.10;8.23;;;;;;;;;;5092371;28;20374;-80
2022/12/12 08:31:29;;;;;;;8.57;7.72;;;;;;;;;;5092378;28;20439;-80
2022/12/12 08:33:55;;;;;;;9.00;8.10;;;;;;;;;;5084231;28;20844;-80
2022/12/12 08:36:22;;;;;;;11.30;8.70;;;;;;;;;;5081062;28;20381;-80
2022/12/12 08:38:48;;;;;;;9.23;8.32;;;;;;;;;;5092195;28;20465;-80
2022/12/12 08:41:15;;;;;;;12.10;8.88;;;;;;;;;;5092227;28;20412;-80
2022/12/12 08:43:42;;;;;;;9.38;8.10;;;;;;;;;;5092403;28;20417;-81
2022/12/12 08:46:09;;;;;;;8.70;7.88;;;;;;;;;;5074074;28;20868;-81
2022/12/12 08:48:35;;;;;;;9.65;8.40;;;;;;;;;;5088833;28;20405;-81
2022/12/12 08:51:01;;;;;;;11.05;8.80;;;;;;;;;;5080582;28;20382;-80
2022/12/12 08:53:27;;;;;;;9.30;8.30;;;;;;;;;;5091385;28;20378;-81
2022/12/12 08:55:53;;;;;;;9.70;8.80;;;;;;;;;;5091635;28;20387;-80
2022/12/12 08:58:20;;;;;;;9.75;8.75;;;;;;;;;;5091627;28;20386;-80
2022/12/12 09:00:46;;;;;;;9.68;8.68;;;;;;;;;;5091683;28;20747;-79
2022/12/12 09:03:12;;;;;;;9.70;8.70;;;;;;;;;;5081646;28;20386;-80
2022/12/12 09:05:42;;;;;;;10.43;9.32;;;;;;;;;;5091952;28;20413;-80
2022/12/12 09:08:08;;;;;;;10.07;9.10;;;;;;;;;;5092037;28;20374;-80
2022/12/12 09:10:34;;;;;;;9.82;8.82;;;;;;;;;;5088439;28;20396;-80
2022/12/12 09:13:00;;;;;;;10.10;9.10;;;;;;;;;;5076174;28;20384;-79
2022/12/12 09:15:26;;;;;;;11.18;10.07;;;;;;;;;;5076214;28;20386;-79
2022/12/12 09:17:52;;;;;;;10.40;9.40;;;;;;;;;;5092013;28;20382;-81
2022/12/12 09:20:18;;;;;;;11.25;10.18;;;;;;;;;;5091549;28;20382;-81
2022/12/12 09:22:44;;;;;;;10.85;9.75;;;;;;;;;;5091632;28;21089;-81
2022/12/12 09:25:10;;;;;;;10.63;9.52;;;;;;;;;;5093375;28;20395;-80
2022/12/12 09:27:36;;;;;;;10.90;9.85;;;;;;;;;;5104210;28;20378;-81
2022/12/12 09:30:03;;;;;;;10.00;9.00;;;;;;;;;;5091726;28;20401;-81
2022/12/12 09:32:29;;;;;;;11.43;9.75;;;;;;;;;;5091695;28;20515;-81
2022/12/12 09:34:55;;;;;;;12.57;10.15;;;;;;;;;;5091765;28;20408;-81
2022/12/12 09:37:21;;;;;;;11.10;9.97;;;;;;;;;;5091680;28;20390;-81
2022/12/12 09:39:47;;;;;;;12.50;11.07;;;;;;;;;;5089656;28;20386;-81
2022/12/12 09:42:27;;;;;;;11.80;9.68;;;;;;;;;;5090283;28;20954;-81
2022/12/12 09:45:01;;;;;;;11.82;10.70;;;;;;;;;;5080368;28;20396;-81
2022/12/12 09:47:30;;;;;;;11.38;9.65;;;;;;;;;;5081207;28;20390;-81
2022/12/12 09:49:58;;;;;;;10.32;9.40;;;;;;;;;;5077669;28;20879;-81
2022/12/12 09:52:32;;;;;;;10.90;9.77;;;;;;;;;;5055375;28;20973;-81
2022/12/12 09:54:59;;;;;;;13.05;11.05;;;;;;;;;;5087256;28;20481;-81
2022/12/12 09:57:26;;;;;;;14.52;11.25;;;;;;;;;;5086500;28;20920;-81
2022/12/12 09:59:57;;;;;;;12.32;11.10;;;;;;;;;;5090574;28;20382;-81
2022/12/12 10:02:36;;;;;;;13.70;10.85;;;;;;;;;;5090852;28;20417;-81
2022/12/12 10:05:08;;;;;;;14.35;12.18;;;;;;;;;;5079010;28;20385;-81
2022/12/12 10:07:34;;;;;;;15.90;12.07;;;;;;;;;;5091122;28;20723;-81
2022/12/12 10:10:18;;;;;;;13.98;11.00;;;;;;;;;;5090544;28;20393;-81
2022/12/12 10:12:45;;;;;;;14.57;11.32;;;;;;;;;;5096133;28;20396;-81
2022/12/12 10:15:33;;;;;;;13.13;11.65;;;;;;;;;;5090965;28;20386;-81
2022/12/12 10:18:00;;;;;;;13.93;12.40;;;;;;;;;;5092623;28;20413;-81
2022/12/12 10:20:28;;;;;;;13.77;12.38;;;;;;;;;;5094676;28;20713;-81
2022/12/12 10:23:14;;;;;;;14.30;12.35;;;;;;;;;;5094778;28;20378;-81
2022/12/12 10:25:43;;;;;;;15.93;12.68;;;;;;;;;;5093994;28;20386;-81
2022/12/12 10:28:12;;;;;;;13.13;11.73;;;;;;;;;;5085646;28;20398;-81
2022/12/12 10:30:46;;;;;;;15.70;12.38;;;;;;;;;;5091845;28;20378;-81
2022/12/12 10:33:18;;;;;;;16.10;12.33;;;;;;;;;;5087101;28;20482;-81
2022/12/12 10:36:04;;;;;;;13.70;11.95;;;;;;;;;;5079659;28;20375;-81
2022/12/12 10:38:36;;;;;;;14.50;12.02;;;;;;;;;;5056836;28;20435;-81
2022/12/12 10:41:06;;;;;;;16.15;12.35;;;;;;;;;;5077748;28;20473;-81
2022/12/12 10:43:50;;;;;;;15.10;12.20;;;;;;;;;;5084782;28;20421;-82
2022/12/12 10:46:52;;;;;;;16.05;12.50;;;;;;;;;;5091428;28;20414;-80
2022/12/12 10:49:19;;;;;;;14.70;12.63;;;;;;;;;;5007487;28;20424;-81
2022/12/12 10:51:47;;;;;;;13.70;12.02;;;;;;;;;;5066758;28;20445;-81
2022/12/12 10:54:20;;;;;;;16.05;13.43;;;;;;;;;;5092723;28;20382;-81
2022/12/12 10:57:04;;;;;;;14.50;12.88;;;;;;;;;;5092123;28;20431;-81
2022/12/12 10:59:30;;;;;;;15.40;12.63;;;;;;;;;;5086675;28;20720;-81
2022/12/12 11:01:58;;;;;;;14.40;13.00;;;;;;;;;;5092629;28;20512;-81
2022/12/12 11:04:24;;;;;;;16.52;13.55;;;;;;;;;;5092175;28;20412;-81
2022/12/12 11:06:52;;;;;;;15.40;13.75;;;;;;;;;;5092051;28;20450;-81
2022/12/12 11:09:22;;;;;;;16.17;14.45;;;;;;;;;;5084200;28;20389;-81
2022/12/12 11:12:08;;;;;;;17.05;14.27;;;;;;;;;;5085134;28;20393;-81
2022/12/12 11:14:37;;;;;;;17.77;14.60;;;;;;;;;;5071928;28;20385;-82
2022/12/12 11:17:18;;;;;;;17.83;14.45;;;;;;;;;;5081628;28;20870;-81
2022/12/12 11:19:45;;;;;;;16.70;14.85;;;;;;;;;;5088148;28;20434;-81
2022/12/12 11:22:12;;;;;;;18.73;15.57;;;;;;;;;;5089242;28;20498;-82
2022/12/12 11:24:39;;;;;;;16.70;14.82;;;;;;;;;;5082498;28;20404;-81
2022/12/12 11:27:06;;;;;;;18.27;15.55;;;;;;;;;;5092005;28;20390;-81
2022/12/12 11:29:32;;;;;;;18.52;15.18;;;;;;;;;;5091119;28;20520;-82
2022/12/12 11:31:59;;;;;;;21.80;17.25;;;;;;;;;;5092049;28;20818;-82
2022/12/12 11:34:26;;;;;;;17.50;15.43;;;;;;;;;;5091623;28;20378;-81
2022/12/12 11:36:53;;;;;;;18.15;15.70;;;;;;;;;;5092173;28;20378;-81
2022/12/12 11:39:22;;;;;;;19.13;15.97;;;;;;;;;;5086996;28;20745;-81
2022/12/12 11:42:05;;;;;;;19.73;16.40;;;;;;;;;;5092052;28;20499;-81
2022/12/12 11:44:35;;;;;;;19.48;15.98;;;;;;;;;;5080670;28;20485;-82
2022/12/12 11:47:21;;;;;;;21.20;16.90;;;;;;;;;;5084913;28;20425;-82
2022/12/12 11:49:48;;;;;;;19.98;17.23;;;;;;;;;;5093212;28;20377;-82
2022/12/12 11:52:18;;;;;;;20.67;16.92;;;;;;;;;;5095108;28;20382;-82
2022/12/12 11:54:44;;;;;;;21.30;17.50;;;;;;;;;;5093039;28;20912;-82
2022/12/12 11:57:16;;;;;;;21.83;18.05;;;;;;;;;;5093372;28;20711;-82
2022/12/12 11:59:48;;;;;;;19.20;16.70;;;;;;;;;;5091842;28;20382;-81
2022/12/12 12:02:29;;;;;;;20.97;17.10;;;;;;;;;;5068640;28;21010;-81
2022/12/12 12:05:14;;;;;;;20.98;17.10;;;;;;;;;;5084412;28;20515;-80
2022/12/12 12:07:53;;;;;;;21.35;16.65;;;;;;;;;;5087586;28;20773;-79
2022/12/12 12:10:22;;;;;;;21.52;17.73;;;;;;;;;;5085060;28;20390;-79
2022/12/12 12:12:54;;;;;;;25.20;19.55;;;;;;;;;;5086247;28;20386;-80
2022/12/12 12:15:39;;;;;;;24.77;19.40;;;;;;;;;;5089578;28;20394;-82
2022/12/12 12:18:11;;;;;;;22.85;18.52;;;;;;;;;;5089843;28;20378;-82
2022/12/12 12:21:00;;;;;;;24.63;19.15;;;;;;;;;;5090415;28;20417;-80
2022/12/12 12:23:38;;;;;;;21.55;17.75;;;;;;;;;;5091115;28;20385;-81
2022/12/12 12:26:10;;;;;;;25.00;19.25;;;;;;;;;;5092647;28;20832;-80
2022/12/12 12:28:50;;;;;;;21.55;17.88;;;;;;;;;;5087696;28;20414;-80
2022/12/12 12:31:34;;;;;;;23.80;19.40;;;;;;;;;;5091507;28;20719;-80
2022/12/12 12:34:19;;;;;;;22.55;18.83;;;;;;;;;;5091860;28;20382;-79
2022/12/12 12:37:05;;;;;;;24.08;18.98;;;;;;;;;;5074190;28;20793;-79
2022/12/12 12:39:34;;;;;;;23.95;19.73;;;;;;;;;;5092462;28;20700;-80
2022/12/12 12:42:19;;;;;;;23.73;19.48;;;;;;;;;;5092100;28;20493;-80
2022/12/12 12:44:51;;;;;;;21.23;18.67;;;;;;;;;;5080585;28;20371;-79
2022/12/12 12:47:36;;;;;;;23.42;17.70;;;;;;;;;;5093505;28;20464;-80
2022/12/12 12:50:15;;;;;;;24.48;18.98;;;;;;;;;;5092235;28;20388;-79
2022/12/12 12:53:01;;;;;;;22.45;17.90;;;;;;;;;;5082120;28;20403;-80
2022/12/12 12:55:29;;;;;;;25.13;19.33;;;;;;;;;;5079874;28;20396;-80
2022/12/12 12:57:55;;;;;;;23.70;18.55;;;;;;;;;;5076737;28;20383;-80
2022/12/12 13:00:23;;;;;;;22.75;18.40;;;;;;;;;;5092339;28;20385;-80
2022/12/12 13:02:53;;;;;;;22.95;18.80;;;;;;;;;;5091822;28;20409;-79
2022/12/12 13:05:22;;;;;;;24.13;19.60;;;;;;;;;;5084572;28;20467;-79
2022/12/12 13:07:54;;;;;;;24.08;18.52;;;;;;;;;;5080678;28;20396;-79
2022/12/12 13:10:24;;;;;;;22.55;19.02;;;;;;;;;;5091325;28;20405;-78
2022/12/12 13:12:55;;;;;;;27.35;20.48;;;;;;;;;;5088465;28;20392;-78
2022/12/12 13:15:33;;;;;;;27.67;20.73;;;;;;;;;;5091919;28;20381;-78
2022/12/12 13:18:01;;;;;;;25.25;20.02;;;;;;;;;;5092011;28;20378;-78
2022/12/12 13:20:28;;;;;;;26.75;20.23;;;;;;;;;;5073670;28;20379;-78
2022/12/12 13:23:13;;;;;;;23.67;18.90;;;;;;;;;;5092098;28;20402;-78
2022/12/12 13:25:45;;;;;;;25.93;20.70;;;;;;;;;;5091563;28;20391;-78
2022/12/12 13:28:15;;;;;;;28.23;21.27;;;;;;;;;;5077219;28;20796;-78
2022/12/12 13:30:47;;;;;;;25.52;20.13;;;;;;;;;;5090548;28;20378;-78
2022/12/12 13:33:19;;;;;;;23.63;19.05;;;;;;;;;;5091848;28;20430;-78
2022/12/12 13:35:47;;;;;;;23.85;18.90;;;;;;;;;;5091851;28;20751;-78
2022/12/12 13:38:25;;;;;;;23.88;19.02;;;;;;;;;;5091855;28;20878;-78
2022/12/12 13:40:56;;;;;;;23.75;18.30;;;;;;;;;;5091797;28;20445;-78
2022/12/12 13:43:31;;;;;;;24.20;19.50;;;;;;;;;;5080491;28;20740;-78
2022/12/12 13:45:57;;;;;;;22.05;18.23;;;;;;;;;;5081796;28;20381;-78
2022/12/12 13:48:26;;;;;;;23.95;19.35;;;;;;;;;;5091491;28;20386;-78
2022/12/12 13:51:11;;;;;;;24.85;18.95;;;;;;;;;;5088266;28;20839;-78
2022/12/12 13:53:37;;;;;;;25.17;19.05;;;;;;;;;;5094136;28;20374;-78
2022/12/12 13:56:21;;;;;;;23.50;18.80;;;;;;;;;;5078991;28;20398;-77
2022/12/12 13:58:47;;;;;;;21.55;18.00;;;;;;;;;;5081789;28;20378;-78
2022/12/12 14:01:33;;;;;;;22.52;17.65;;;;;;;;;;5089675;28;20431;-78
2022/12/12 14:04:00;;;;;;;25.05;19.33;;;;;;;;;;5098306;28;20380;-78
2022/12/12 14:06:28;;;;;;;26.58;19.50;;;;;;;;;;5100043;28;20398;-78
2022/12/12 14:08:54;;;;;;;24.48;17.70;;;;;;;;;;5095339;28;20409;-78
2022/12/12 14:11:26;;;;;;;22.42;17.85;;;;;;;;;;5095263;28;20386;-78
2022/12/12 14:14:00;;;;;;;20.42;17.20;;;;;;;;;;5095176;28;20769;-78
2022/12/12 14:16:27;;;;;;;21.25;17.58;;;;;;;;;;5094924;28;20382;-78
2022/12/12 14:19:03;;;;;;;24.73;18.80;;;;;;;;;;5074095;28;20382;-78
2022/12/12 14:21:37;;;;;;;22.55;18.10;;;;;;;;;;5092427;28;20462;-78
2022/12/12 14:24:22;;;;;;;22.88;18.13;;;;;;;;;;5063525;28;20454;-78
2022/12/12 14:26:48;;;;;;;21.67;17.08;;;;;;;;;;5094336;28;20386;-79
2022/12/12 14:29:17;;;;;;;20.73;16.67;;;;;;;;;;5094705;28;20397;-78
2022/12/12 14:32:01;;;;;;;21.47;17.30;;;;;;;;;;5094837;28;20389;-78
2022/12/12 14:34:29;;;;;;;23.40;17.90;;;;;;;;;;5094850;28;20366;-78
2022/12/12 14:37:14;;;;;;;22.90;17.58;;;;;;;;;;5094864;28;20381;-78
2022/12/12 14:39:52;;;;;;;26.88;18.42;;;;;;;;;;5094913;28;20772;-78
2022/12/12 14:42:32;;;;;;;24.45;18.70;;;;;;;;;;5094348;28;20809;-78
2022/12/12 14:44:58;;;;;;;22.83;18.17;;;;;;;;;;5094545;28;20386;-78
2022/12/12 14:47:24;;;;;;;21.15;17.48;;;;;;;;;;5076180;28;20447;-78
2022/12/12 14:50:07;;;;;;;19.35;17.25;;;;;;;;;;5094593;28;20429;-78
2022/12/12 14:52:33;;;;;;;20.33;17.50;;;;;;;;;;5094527;28;20378;-78
2022/12/12 14:55:01;;;;;;;23.15;17.70;;;;;;;;;;5094405;28;20378;-78
2022/12/12 14:57:27;;;;;;;20.40;17.70;;;;;;;;;;5094563;28;20764;-78